createdAt,value
2017-10-01T00:01:51.652Z,1017.6
2017-10-01T00:06:56.717Z,1017.7
2017-10-01T00:12:02.118Z,1017.7
2017-10-01T00:17:07.181Z,1017.8
2017-10-01T00:22:12.576Z,1017.8
2017-10-01T00:27:17.299Z,1017.8
2017-10-01T00:32:22.703Z,1017.9
2017-10-01T00:37:28.101Z,1017.9
2017-10-01T00:42:33.499Z,1018
2017-10-01T00:47:38.566Z,1018.1
2017-10-01T00:52:43.961Z,1018.1
2017-10-01T00:57:49.357Z,1018.1
2017-10-01T01:02:53.749Z,1018.2
2017-10-01T01:07:59.811Z,1018.4
2017-10-01T01:13:05.206Z,1018.4
2017-10-01T01:18:10.605Z,1018.4
2017-10-01T01:23:16.003Z,1018.5
2017-10-01T01:28:21.402Z,1018.6
2017-10-01T01:33:25.793Z,1018.6
2017-10-01T01:38:30.864Z,1018.6
2017-10-01T01:43:35.931Z,1018.7
2017-10-01T01:48:40.657Z,1018.7
2017-10-01T01:53:45.735Z,1018.7
2017-10-01T01:58:50.794Z,1018.8
2017-10-01T02:03:56.193Z,1018.8
2017-10-01T02:09:01.930Z,1018.9
2017-10-01T02:14:06.993Z,1018.9
2017-10-01T02:19:12.390Z,1019
2017-10-01T02:24:17.451Z,1019
2017-10-01T02:29:22.847Z,1019.1
2017-10-01T02:34:28.243Z,1019.1
2017-10-01T02:39:32.972Z,1019.1
2017-10-01T02:44:38.367Z,1019.1
2017-10-01T02:49:43.772Z,1019.2
2017-10-01T02:54:49.179Z,1019.2
2017-10-01T02:59:54.602Z,1019.3
2017-10-01T03:05:00.653Z,1019.3
2017-10-01T03:10:06.052Z,1019.4
2017-10-01T03:15:10.441Z,1019.4
2017-10-01T03:20:15.167Z,1019.5
2017-10-01T03:25:20.562Z,1019.5
2017-10-01T03:30:25.969Z,1019.6
2017-10-01T03:35:31.387Z,1019.6
2017-10-01T03:40:37.433Z,1019.7
2017-10-01T03:45:42.166Z,1019.7
2017-10-01T03:50:47.227Z,1019.7
2017-10-01T03:55:52.620Z,1019.7
2017-10-01T04:00:57.739Z,1019.7
2017-10-01T04:06:03.471Z,1019.7
2017-10-01T04:11:09.202Z,1019.8
2017-10-01T04:16:14.956Z,1019.7
2017-10-01T04:21:20.021Z,1019.8
2017-10-01T04:26:25.419Z,1019.8
2017-10-01T04:31:30.479Z,1019.8
2017-10-01T04:36:35.542Z,1019.9
2017-10-01T04:41:40.936Z,1019.9
2017-10-01T04:46:45.996Z,1020
2017-10-01T04:51:51.059Z,1020
2017-10-01T04:56:55.794Z,1020.1
2017-10-01T05:02:01.188Z,1020.1
2017-10-01T05:07:05.918Z,1020.2
2017-10-01T05:12:10.981Z,1020.3
2017-10-01T05:17:16.042Z,1020.4
2017-10-01T05:22:21.437Z,1020.4
2017-10-01T05:27:26.219Z,1020.5
2017-10-01T05:32:31.618Z,1020.5
2017-10-01T05:37:36.683Z,1020.6
2017-10-01T05:42:41.409Z,1020.6
2017-10-01T05:47:47.473Z,1020.7
2017-10-01T05:52:52.874Z,1020.7
2017-10-01T05:57:58.271Z,1020.7
2017-10-01T06:03:02.998Z,1020.7
2017-10-01T06:08:08.216Z,1020.7
2017-10-01T06:13:12.621Z,1020.8
2017-10-01T06:18:17.689Z,1020.8
2017-10-01T06:23:22.436Z,1020.8
2017-10-01T06:28:28.491Z,1020.8
2017-10-01T06:33:33.220Z,1020.8
2017-10-01T06:38:38.288Z,1020.8
2017-10-01T06:43:43.355Z,1020.9
2017-10-01T06:48:48.422Z,1020.9
2017-10-01T06:53:53.827Z,1020.9
2017-10-01T06:58:59.227Z,1021
2017-10-01T07:04:04.629Z,1021
2017-10-01T07:09:10.367Z,1021
2017-10-01T07:14:15.768Z,1021
2017-10-01T07:19:21.173Z,1021.1
2017-10-01T07:24:26.588Z,1021.1
2017-10-01T07:29:32.000Z,1021.1
2017-10-01T07:34:37.523Z,1021.2
2017-10-01T07:39:42.735Z,1021.2
2017-10-01T07:44:48.133Z,1021.2
2017-10-01T07:49:53.230Z,1021.2
2017-10-01T07:54:58.782Z,1021.3
2017-10-01T08:00:03.386Z,1021.3
2017-10-01T08:05:08.955Z,1021.4
2017-10-01T08:10:14.361Z,1021.4
2017-10-01T08:15:19.783Z,1021.4
2017-10-01T08:20:25.237Z,1021.3
2017-10-01T08:25:30.320Z,1021.4
2017-10-01T08:30:35.395Z,1021.3
2017-10-01T08:35:40.817Z,1021.3
2017-10-01T08:40:46.561Z,1021.4
2017-10-01T08:45:51.308Z,1021.4
2017-10-01T08:50:56.717Z,1021.4
2017-10-01T08:56:01.882Z,1021.4
2017-10-01T09:01:06.720Z,1021.4
2017-10-01T09:06:11.802Z,1021.5
2017-10-01T09:11:16.905Z,1021.5
2017-10-01T09:16:22.649Z,1021.5
2017-10-01T09:21:28.109Z,1021.5
2017-10-01T09:26:33.296Z,1021.5
2017-10-01T09:31:38.719Z,1021.6
2017-10-01T09:36:43.513Z,1021.6
2017-10-01T09:41:49.276Z,1021.6
2017-10-01T09:46:54.763Z,1021.5
2017-10-01T09:51:59.843Z,1021.5
2017-10-01T09:57:04.927Z,1021.5
2017-10-01T10:02:10.741Z,1021.5
2017-10-01T10:07:16.360Z,1021.4
2017-10-01T10:12:21.438Z,1021.4
2017-10-01T10:17:26.882Z,1021.4
2017-10-01T10:22:31.982Z,1021.4
2017-10-01T10:27:37.408Z,1021.5
2017-10-01T10:32:41.829Z,1021.5
2017-10-01T10:37:47.585Z,1021.5
2017-10-01T10:42:52.998Z,1021.4
2017-10-01T10:47:57.743Z,1021.5
2017-10-01T10:53:03.491Z,1021.5
2017-10-01T10:58:08.903Z,1021.5
2017-10-01T11:03:14.654Z,1021.4
2017-10-01T11:08:20.069Z,1021.5
2017-10-01T11:13:24.811Z,1021.5
2017-10-01T11:18:29.585Z,1021.3
2017-10-01T11:23:34.346Z,1021.3
2017-10-01T11:28:39.759Z,1021.3
2017-10-01T11:33:44.838Z,1021.3
2017-10-01T11:38:50.184Z,1021.2
2017-10-01T11:43:55.284Z,1021.3
2017-10-01T11:49:00.395Z,1021.3
2017-10-01T11:54:06.178Z,1021.3
2017-10-01T11:59:11.265Z,1021.2
2017-10-01T12:04:16.353Z,1021.2
2017-10-01T12:09:22.144Z,1021.2
2017-10-01T12:14:26.891Z,1021.2
2017-10-01T12:19:31.982Z,1021.1
2017-10-01T12:24:37.745Z,1021.1
2017-10-01T12:29:42.872Z,1021.1
2017-10-01T12:34:48.293Z,1021.1
2017-10-01T12:39:52.375Z,1021.1
2017-10-01T12:44:58.468Z,1021
2017-10-01T12:50:03.889Z,1021
2017-10-01T12:55:08.968Z,1020.9
2017-10-01T13:00:14.053Z,1021
2017-10-01T13:05:19.125Z,1020.9
2017-10-01T13:10:24.873Z,1020.9
2017-10-01T13:15:29.955Z,1020.8
2017-10-01T13:20:35.026Z,1020.9
2017-10-01T13:25:40.763Z,1020.9
2017-10-01T13:30:45.172Z,1020.8
2017-10-01T13:35:50.580Z,1020.8
2017-10-01T13:40:55.995Z,1020.8
2017-10-01T13:46:01.412Z,1020.7
2017-10-01T13:51:07.494Z,1020.6
2017-10-01T13:56:12.902Z,1020.6
2017-10-01T14:01:18.310Z,1020.6
2017-10-01T14:06:24.057Z,1020.6
2017-10-01T14:11:29.468Z,1020.5
2017-10-01T14:16:34.211Z,1020.5
2017-10-01T14:21:39.953Z,1020.6
2017-10-01T14:26:45.694Z,1020.6
2017-10-01T14:31:51.440Z,1020.6
2017-10-01T14:36:56.847Z,1020.5
2017-10-01T14:42:01.927Z,1020.5
2017-10-01T14:47:07.004Z,1020.5
2017-10-01T14:52:12.421Z,1020.5
2017-10-01T14:57:18.514Z,1020.4
2017-10-01T15:02:24.590Z,1020.4
2017-10-01T15:07:29.660Z,1020.3
2017-10-01T15:12:35.071Z,1020.3
2017-10-01T15:17:40.140Z,1020.3
2017-10-01T15:22:44.882Z,1020.3
2017-10-01T15:27:49.622Z,1020.3
2017-10-01T15:32:55.049Z,1020.3
2017-10-01T15:38:00.474Z,1020.3
2017-10-01T15:43:04.882Z,1020.3
2017-10-01T15:48:09.953Z,1020.3
2017-10-01T15:53:14.689Z,1020.2
2017-10-01T15:58:19.458Z,1020.2
2017-10-01T16:03:24.864Z,1020.1
2017-10-01T16:08:30.269Z,1020.2
2017-10-01T16:13:35.341Z,1020.2
2017-10-01T16:18:41.082Z,1020.1
2017-10-01T16:23:46.159Z,1020.1
2017-10-01T16:28:51.560Z,1020.1
2017-10-01T16:33:57.302Z,1020
2017-10-01T16:39:02.428Z,1020.1
2017-10-01T16:44:07.496Z,1020.1
2017-10-01T16:49:12.226Z,1020.1
2017-10-01T16:54:16.961Z,1020.1
2017-10-01T16:59:21.690Z,1020
2017-10-01T17:04:27.096Z,1020.1
2017-10-01T17:09:31.825Z,1020
2017-10-01T17:14:36.895Z,1020
2017-10-01T17:19:42.300Z,1019.9
2017-10-01T17:24:47.031Z,1019.9
2017-10-01T17:29:51.767Z,1019.9
2017-10-01T17:34:56.500Z,1019.8
2017-10-01T17:40:01.909Z,1019.8
2017-10-01T17:45:06.994Z,1019.8
2017-10-01T17:50:12.071Z,1019.9
2017-10-01T17:55:18.146Z,1019.9
2017-10-01T18:00:23.209Z,1019.8
2017-10-01T18:05:27.942Z,1019.7
2017-10-01T18:10:33.350Z,1019.7
2017-10-01T18:15:38.097Z,1019.8
2017-10-01T18:20:43.505Z,1019.7
2017-10-01T18:25:47.901Z,1019.7
2017-10-01T18:30:52.642Z,1019.8
2017-10-01T18:35:58.382Z,1019.8
2017-10-01T18:41:04.121Z,1019.7
2017-10-01T18:46:08.522Z,1019.7
2017-10-01T18:51:13.701Z,1019.7
2017-10-01T18:56:19.438Z,1019.6
2017-10-01T19:01:24.850Z,1019.6
2017-10-01T19:06:30.256Z,1019.8
2017-10-01T19:11:34.657Z,1019.8
2017-10-01T19:16:39.731Z,1019.8
2017-10-01T19:21:44.135Z,1019.7
2017-10-01T19:26:49.205Z,1019.7
2017-10-01T19:31:54.615Z,1019.5
2017-10-01T19:36:59.684Z,1019.4
2017-10-01T19:42:04.753Z,1019.3
2017-10-01T19:47:10.498Z,1019.3
2017-10-01T19:52:15.917Z,1019.2
2017-10-01T19:57:21.666Z,1019
2017-10-01T20:02:26.750Z,1019.1
2017-10-01T20:07:31.821Z,1019
2017-10-01T20:12:35.900Z,1019
2017-10-01T20:17:40.966Z,1018.9
2017-10-01T20:22:46.084Z,1018.9
2017-10-01T20:27:50.491Z,1018.9
2017-10-01T20:32:54.910Z,1018.8
2017-10-01T20:38:00.000Z,1018.8
2017-10-01T20:43:05.081Z,1018.7
2017-10-01T20:48:10.821Z,1018.6
2017-10-01T20:53:16.906Z,1018.6
2017-10-01T20:58:22.328Z,1018.3
2017-10-01T21:03:28.407Z,1018.1
2017-10-01T21:08:34.486Z,1018
2017-10-01T21:13:39.547Z,1017.9
2017-10-01T21:18:43.939Z,1017.9
2017-10-01T21:23:48.669Z,1017.8
2017-10-01T21:28:54.405Z,1017.8
2017-10-01T21:33:59.132Z,1017.7
2017-10-01T21:39:04.207Z,1017.7
2017-10-01T21:44:09.607Z,1017.6
2017-10-01T21:49:14.678Z,1017.6
2017-10-01T21:54:20.085Z,1017.8
2017-10-01T21:59:25.152Z,1017.9
2017-10-01T22:04:29.878Z,1017.9
2017-10-01T22:09:34.940Z,1017.8
2017-10-01T22:14:40.694Z,1017.5
2017-10-01T22:19:45.096Z,1017.4
2017-10-01T22:24:51.167Z,1017.3
2017-10-01T22:29:55.903Z,1017.2
2017-10-01T22:35:00.644Z,1017.2
2017-10-01T22:40:04.707Z,1017.3
2017-10-01T22:45:10.103Z,1017.3
2017-10-01T22:50:14.860Z,1017
2017-10-01T22:55:20.264Z,1016.8
2017-10-01T23:00:25.666Z,1016.7
2017-10-01T23:05:30.730Z,1016.7
2017-10-01T23:10:35.790Z,1016.6
2017-10-01T23:15:40.527Z,1016.4
2017-10-01T23:20:45.588Z,1016.1
2017-10-01T23:25:51.193Z,1016
2017-10-01T23:30:56.926Z,1016
2017-10-01T23:36:01.987Z,1016
2017-10-01T23:41:07.047Z,1015.9
2017-10-01T23:46:12.111Z,1015.7
2017-10-01T23:51:16.835Z,1015.6
2017-10-01T23:56:22.566Z,1015.6
